Time,TemperatureF,DewpointF,PressureIn,WindDirection,WindDirectionDegrees,WindSpeedMPH,WindSpeedGustMPH,Humidity,HourlyPrecipIn,Conditions,Clouds,dailyrainin,SoftwareType,DateUTC
2013-02-10 00:00:00,13.2,9.8,30.21,North,9,1.0,2.0,86,0.00,,,0.00,WeatherCatV1.11B39,2013-02-10 05:00:00,
2013-02-10 00:05:00,13.2,9.8,30.21,West,269,0.0,2.0,86,0.00,,,0.00,WeatherCatV1.11B39,2013-02-10 05:05:00,
2013-02-10 00:10:00,13.1,9.7,30.21,SSW,200,0.0,3.0,86,0.00,,,0.00,WeatherCatV1.11B39,2013-02-10 05:10:00,
2013-02-10 00:15:00,13.1,9.7,30.22,NNE,15,9.0,9.0,86,0.00,,,0.00,WeatherCatV1.11B39,2013-02-10 05:15:00,
2013-02-10 00:20:00,13.2,9.8,30.22,NNW,336,3.0,5.0,86,0.00,,,0.00,WeatherCatV1.11B39,2013-02-10 05:20:00,
2013-02-10 00:25:00,13.2,9.6,30.22,SSW,205,1.0,6.0,85,0.00,,,0.00,WeatherCatV1.11B39,2013-02-10 05:25:00,
2013-02-10 00:30:00,13.2,9.6,30.22,SSW,198,0.0,5.0,85,0.00,,,0.00,WeatherCatV1.11B39,2013-02-10 05:30:00,
2013-02-10 00:35:00,13.2,9.6,30.22,West,266,0.0,2.0,85,0.00,,,0.00,WeatherCatV1.11B39,2013-02-10 05:35:00,
2013-02-10 00:40:00,13.2,9.3,30.22,North,0,4.0,8.0,84,0.00,,,0.00,WeatherCatV1.11B39,2013-02-10 05:40:00,
2013-02-10 00:45:00,13.2,9.3,30.22,SW,232,0.0,4.0,84,0.00,,,0.00,WeatherCatV1.11B39,2013-02-10 05:45:00,
2013-02-10 00:50:00,13.2,9.6,30.22,North,9,4.0,4.0,85,0.00,,,0.00,WeatherCatV1.11B39,2013-02-10 05:50:00,
2013-02-10 00:55:00,13.2,9.3,30.23,NE,38,7.0,7.0,84,0.00,,,0.00,WeatherCatV1.11B39,2013-02-10 05:55:00,
2013-02-10 01:00:00,13.2,9.3,30.23,WSW,242,2.0,3.0,84,0.00,,,0.00,WeatherCatV1.11B39,2013-02-10 06:00:00,
2013-02-10 01:05:00,13.2,9.0,30.23,West,271,1.0,6.0,83,0.00,,,0.00,WeatherCatV1.11B39,2013-02-10 06:05:00,
2013-02-10 01:10:00,13.2,9.3,30.23,SSW,204,0.0,2.0,84,0.00,,,0.00,WeatherCatV1.11B39,2013-02-10 06:10:00,
2013-02-10 01:15:00,13.1,9.2,30.23,West,270,0.0,1.0,84,0.00,,,0.00,WeatherCatV1.11B39,2013-02-10 06:15:00,
2013-02-10 01:20:00,13.2,9.0,30.23,NW,320,3.0,3.0,83,0.00,,,0.00,WeatherCatV1.11B39,2013-02-10 06:20:00,
2013-02-10 01:25:00,13.3,9.1,30.23,NW,314,0.0,4.0,83,0.00,,,0.00,WeatherCatV1.11B39,2013-02-10 06:25:00,
2013-02-10 01:30:00,13.4,9.2,30.23,SW,236,0.0,3.0,83,0.00,,,0.00,WeatherCatV1.11B39,2013-02-10 06:30:00,
2013-02-10 01:35:00,13.3,9.1,30.24,NNW,343,1.0,4.0,83,0.00,,,0.00,WeatherCatV1.11B39,2013-02-10 06:35:00,
2013-02-10 01:40:00,13.4,9.2,30.24,SW,228,0.0,1.0,83,0.00,,,0.00,WeatherCatV1.11B39,2013-02-10 06:40:00,
2013-02-10 01:45:00,13.4,9.2,30.24,North,356,1.0,3.0,83,0.00,,,0.00,WeatherCatV1.11B39,2013-02-10 06:45:00,
2013-02-10 01:50:00,13.5,9.0,30.24,NW,320,0.0,5.0,82,0.00,,,0.00,WeatherCatV1.11B39,2013-02-10 06:50:00,
2013-02-10 01:55:00,13.5,9.3,30.24,NNW,346,1.0,2.0,83,0.00,,,0.00,WeatherCatV1.11B39,2013-02-10 06:55:00,
2013-02-10 02:00:00,13.6,9.1,30.24,South,169,1.0,9.0,82,0.00,,,0.00,WeatherCatV1.11B39,2013-02-10 07:00:00,
2013-02-10 02:05:00,13.6,8.9,30.25,NNW,346,3.0,5.0,81,0.00,,,0.00,WeatherCatV1.11B39,2013-02-10 07:05:00,
2013-02-10 02:10:00,13.7,9.0,30.25,NW,315,4.0,5.0,81,0.00,,,0.00,WeatherCatV1.11B39,2013-02-10 07:10:00,
2013-02-10 02:15:00,13.8,8.8,30.25,ENE,57,0.0,5.0,80,0.00,,,0.00,WeatherCatV1.11B39,2013-02-10 07:15:00,
2013-02-10 02:20:00,13.8,9.1,30.25,NNE,23,1.0,3.0,81,0.00,,,0.00,WeatherCatV1.11B39,2013-02-10 07:20:00,
2013-02-10 02:25:00,13.7,9.0,30.25,ESE,123,1.0,4.0,81,0.00,,,0.00,WeatherCatV1.11B39,2013-02-10 07:25:00,
2013-02-10 02:30:00,13.7,9.0,30.25,NNE,19,1.0,3.0,81,0.00,,,0.00,WeatherCatV1.11B39,2013-02-10 07:30:00,
2013-02-10 02:35:00,13.7,8.7,30.25,WSW,245,0.0,2.0,80,0.00,,,0.00,WeatherCatV1.11B39,2013-02-10 07:35:00,
2013-02-10 02:40:00,13.8,9.1,30.25,NE,56,0.0,1.0,81,0.00,,,0.00,WeatherCatV1.11B39,2013-02-10 07:40:00,
2013-02-10 02:45:00,13.9,8.9,30.25,North,351,0.0,7.0,80,0.00,,,0.00,WeatherCatV1.11B39,2013-02-10 07:45:00,
2013-02-10 02:50:00,14.0,9.0,30.25,North,9,3.0,4.0,80,0.00,,,0.00,WeatherCatV1.11B39,2013-02-10 07:50:00,
2013-02-10 02:55:00,14.0,9.0,30.25,West,281,3.0,4.0,80,0.00,,,0.00,WeatherCatV1.11B39,2013-02-10 07:55:00,
2013-02-10 03:00:00,14.0,8.4,30.25,NW,307,0.0,7.0,78,0.00,,,0.00,WeatherCatV1.11B39,2013-02-10 08:00:00,
2013-02-10 03:05:00,14.1,8.8,30.25,South,175,1.0,2.0,79,0.00,,,0.00,WeatherCatV1.11B39,2013-02-10 08:05:00,
2013-02-10 03:10:00,14.0,8.4,30.26,SSW,205,0.0,6.0,78,0.00,,,0.00,WeatherCatV1.11B39,2013-02-10 08:10:00,
2013-02-10 03:15:00,14.0,8.1,30.26,ENE,65,0.0,5.0,77,0.00,,,0.00,WeatherCatV1.11B39,2013-02-10 08:15:00,
2013-02-10 03:20:00,14.0,8.7,30.26,WSW,242,0.0,2.0,79,0.00,,,0.00,WeatherCatV1.11B39,2013-02-10 08:20:00,
2013-02-10 03:25:00,14.0,8.4,30.26,ENE,71,0.0,5.0,78,0.00,,,0.00,WeatherCatV1.11B39,2013-02-10 08:25:00,
2013-02-10 03:30:00,14.1,8.5,30.26,NW,320,0.0,2.0,78,0.00,,,0.00,WeatherCatV1.11B39,2013-02-10 08:30:00,
2013-02-10 03:35:00,14.0,8.4,30.27,NNE,26,1.0,2.0,78,0.00,,,0.00,WeatherCatV1.11B39,2013-02-10 08:35:00,
2013-02-10 03:40:00,14.0,8.1,30.27,West,263,1.0,12.0,77,0.00,,,0.00,WeatherCatV1.11B39,2013-02-10 08:40:00,
2013-02-10 03:45:00,13.9,8.0,30.27,SSW,196,0.0,1.0,77,0.00,,,0.00,WeatherCatV1.11B39,2013-02-10 08:45:00,
2013-02-10 03:50:00,13.9,8.3,30.27,North,6,0.0,3.0,78,0.00,,,0.00,WeatherCatV1.11B39,2013-02-10 08:50:00,
2013-02-10 03:55:00,13.8,8.2,30.27,North,356,0.0,2.0,78,0.00,,,0.00,WeatherCatV1.11B39,2013-02-10 08:55:00,
2013-02-10 04:00:00,13.6,8.0,30.27,NNW,331,1.0,3.0,78,0.00,,,0.00,WeatherCatV1.11B39,2013-02-10 09:00:00,
2013-02-10 04:05:00,13.5,7.9,30.27,NW,306,0.0,1.0,78,0.00,,,0.00,WeatherCatV1.11B39,2013-02-10 09:05:00,
2013-02-10 04:10:00,13.4,7.6,30.27,SW,222,0.0,3.0,77,0.00,,,0.00,WeatherCatV1.11B39,2013-02-10 09:10:00,
2013-02-10 04:15:00,13.3,7.5,30.28,WSW,239,1.0,1.0,77,0.00,,,0.00,WeatherCatV1.11B39,2013-02-10 09:15:00,
2013-02-10 04:20:00,13.1,7.3,30.28,NW,316,0.0,2.0,77,0.00,,,0.00,WeatherCatV1.11B39,2013-02-10 09:20:00,
2013-02-10 04:25:00,13.0,7.5,30.28,SSW,207,0.0,1.0,78,0.00,,,0.00,WeatherCatV1.11B39,2013-02-10 09:25:00,
2013-02-10 04:30:00,12.8,7.3,30.28,SW,214,0.0,0.0,78,0.00,,,0.00,WeatherCatV1.11B39,2013-02-10 09:30:00,
2013-02-10 04:35:00,12.5,6.7,30.29,SW,226,0.0,1.0,77,0.00,,,0.00,WeatherCatV1.11B39,2013-02-10 09:35:00,
2013-02-10 04:40:00,12.2,7.2,30.29,WNW,295,0.0,1.0,80,0.00,,,0.00,WeatherCatV1.11B39,2013-02-10 09:40:00,
2013-02-10 04:45:00,11.9,6.7,30.30,WNW,295,0.0,0.0,79,0.00,,,0.00,WeatherCatV1.11B39,2013-02-10 09:45:00,
2013-02-10 04:50:00,11.6,6.4,30.30,WSW,245,0.0,1.0,79,0.00,,,0.00,WeatherCatV1.11B39,2013-02-10 09:50:00,
2013-02-10 04:55:00,11.3,6.4,30.30,WSW,252,0.0,0.0,80,0.00,,,0.00,WeatherCatV1.11B39,2013-02-10 09:55:00,
2013-02-10 05:00:00,11.0,6.6,30.30,WSW,252,0.0,0.0,82,0.00,,,0.00,WeatherCatV1.11B39,2013-02-10 10:00:00,
2013-02-10 05:05:00,10.7,6.0,30.30,WSW,252,0.0,0.0,81,0.00,,,0.00,WeatherCatV1.11B39,2013-02-10 10:05:00,
2013-02-10 05:10:00,10.5,5.6,30.31,WSW,252,0.0,1.0,80,0.00,,,0.00,WeatherCatV1.11B39,2013-02-10 10:10:00,
2013-02-10 05:15:00,10.3,5.7,30.31,WSW,252,0.0,0.0,81,0.00,,,0.00,WeatherCatV1.11B39,2013-02-10 10:15:00,
2013-02-10 05:20:00,10.3,5.4,30.31,WSW,252,0.0,1.0,80,0.00,,,0.00,WeatherCatV1.11B39,2013-02-10 10:20:00,
2013-02-10 05:25:00,10.3,5.4,30.31,SW,226,0.0,1.0,80,0.00,,,0.00,WeatherCatV1.11B39,2013-02-10 10:25:00,
2013-02-10 05:30:00,10.3,5.1,30.31,SW,226,0.0,1.0,79,0.00,,,0.00,WeatherCatV1.11B39,2013-02-10 10:30:00,
2013-02-10 05:35:00,10.6,5.4,30.32,NW,318,0.0,1.0,79,0.00,,,0.00,WeatherCatV1.11B39,2013-02-10 10:35:00,
2013-02-10 05:40:00,10.6,5.7,30.32,SE,140,0.0,1.0,80,0.00,,,0.00,WeatherCatV1.11B39,2013-02-10 10:40:00,
2013-02-10 05:45:00,10.4,5.5,30.33,SE,140,0.0,0.0,80,0.00,,,0.00,WeatherCatV1.11B39,2013-02-10 10:45:00,
2013-02-10 05:50:00,10.2,5.6,30.33,SE,139,0.0,0.0,81,0.00,,,0.00,WeatherCatV1.11B39,2013-02-10 10:50:00,
2013-02-10 05:55:00,10.1,5.5,30.33,SSW,203,0.0,0.0,81,0.00,,,0.00,WeatherCatV1.11B39,2013-02-10 10:55:00,
2013-02-10 06:00:00,10.1,5.5,30.33,NNE,17,3.0,3.0,81,0.00,,,0.00,WeatherCatV1.11B39,2013-02-10 11:00:00,
2013-02-10 06:05:00,10.2,5.8,30.33,NW,321,0.0,0.0,82,0.00,,,0.00,WeatherCatV1.11B39,2013-02-10 11:05:00,
2013-02-10 06:10:00,10.0,5.4,30.33,NW,321,0.0,0.0,81,0.00,,,0.00,WeatherCatV1.11B39,2013-02-10 11:10:00,
2013-02-10 06:15:00,9.7,4.5,30.33,NW,320,0.0,0.0,79,0.00,,,0.00,WeatherCatV1.11B39,2013-02-10 11:15:00,
2013-02-10 06:20:00,9.8,4.6,30.33,NW,321,0.0,0.0,79,0.00,,,0.00,WeatherCatV1.11B39,2013-02-10 11:20:00,
2013-02-10 06:25:00,9.7,5.1,30.34,NW,321,0.0,0.0,81,0.00,,,0.00,WeatherCatV1.11B39,2013-02-10 11:25:00,
2013-02-10 06:30:00,9.4,4.5,30.34,NW,320,0.0,0.0,80,0.00,,,0.00,WeatherCatV1.11B39,2013-02-10 11:30:00,
2013-02-10 06:35:00,9.3,4.4,30.34,NW,321,0.0,0.0,80,0.00,,,0.00,WeatherCatV1.11B39,2013-02-10 11:35:00,
2013-02-10 06:40:00,9.0,4.1,30.34,West,267,0.0,0.0,80,0.00,,,0.00,WeatherCatV1.11B39,2013-02-10 11:40:00,
2013-02-10 06:45:00,9.0,4.4,30.35,West,264,0.0,0.0,81,0.00,,,0.00,WeatherCatV1.11B39,2013-02-10 11:45:00,
2013-02-10 06:50:00,9.0,4.6,30.35,West,264,0.0,0.0,82,0.00,,,0.00,WeatherCatV1.11B39,2013-02-10 11:50:00,
2013-02-10 06:55:00,8.9,4.3,30.35,West,264,0.0,0.0,81,0.00,,,0.00,WeatherCatV1.11B39,2013-02-10 11:55:00,
2013-02-10 07:00:00,8.7,4.6,30.35,West,264,0.0,0.0,83,0.00,,,0.00,WeatherCatV1.11B39,2013-02-10 12:00:00,
2013-02-10 07:05:00,8.2,4.1,30.36,West,264,0.0,0.0,83,0.00,,,0.00,WeatherCatV1.11B39,2013-02-10 12:05:00,
2013-02-10 07:10:00,8.0,3.7,30.36,WSW,252,0.0,0.0,82,0.00,,,0.00,WeatherCatV1.11B39,2013-02-10 12:10:00,
2013-02-10 07:15:00,8.3,4.0,30.36,WSW,252,0.0,1.0,82,0.00,,,0.00,WeatherCatV1.11B39,2013-02-10 12:15:00,
2013-02-10 07:20:00,8.8,4.2,30.37,WSW,252,0.0,1.0,81,0.00,,,0.00,WeatherCatV1.11B39,2013-02-10 12:20:00,
2013-02-10 07:25:00,9.1,4.5,30.37,WSW,252,0.0,1.0,81,0.00,,,0.00,WeatherCatV1.11B39,2013-02-10 12:25:00,
2013-02-10 07:30:00,9.5,4.9,30.37,WSW,252,0.0,0.0,81,0.00,,,0.00,WeatherCatV1.11B39,2013-02-10 12:30:00,
2013-02-10 07:35:00,10.0,4.8,30.37,WSW,245,0.0,0.0,79,0.00,,,0.00,WeatherCatV1.11B39,2013-02-10 12:35:00,
2013-02-10 07:40:00,10.6,5.1,30.37,SW,219,0.0,0.0,78,0.00,,,0.00,WeatherCatV1.11B39,2013-02-10 12:40:00,
2013-02-10 07:45:00,11.3,5.8,30.38,SSW,208,1.0,1.0,78,0.00,,,0.00,WeatherCatV1.11B39,2013-02-10 12:45:00,
2013-02-10 07:50:00,12.0,6.2,30.38,SSW,208,0.0,0.0,77,0.00,,,0.00,WeatherCatV1.11B39,2013-02-10 12:50:00,
2013-02-10 07:55:00,12.6,7.1,30.38,SW,236,0.0,2.0,78,0.00,,,0.00,WeatherCatV1.11B39,2013-02-10 12:55:00,
2013-02-10 08:00:00,13.2,6.8,30.38,SW,228,0.0,1.0,75,0.00,,,0.00,WeatherCatV1.11B39,2013-02-10 13:00:00,
2013-02-10 08:05:00,13.9,7.8,30.38,NNE,16,0.0,1.0,76,0.00,,,0.00,WeatherCatV1.11B39,2013-02-10 13:05:00,
2013-02-10 08:10:00,14.5,7.5,30.39,SW,236,0.0,1.0,73,0.00,,,0.00,WeatherCatV1.11B39,2013-02-10 13:10:00,
2013-02-10 08:15:00,15.0,8.2,30.39,SSW,205,0.0,0.0,74,0.00,,,0.00,WeatherCatV1.11B39,2013-02-10 13:15:00,
2013-02-10 08:20:00,15.5,8.1,30.39,SSW,195,0.0,0.0,72,0.00,,,0.00,WeatherCatV1.11B39,2013-02-10 13:20:00,
2013-02-10 08:25:00,16.1,9.0,30.39,SW,214,0.0,1.0,73,0.00,,,0.00,WeatherCatV1.11B39,2013-02-10 13:25:00,
2013-02-10 08:30:00,16.7,9.0,30.39,SW,225,2.0,2.0,71,0.00,,,0.00,WeatherCatV1.11B39,2013-02-10 13:30:00,
2013-02-10 08:32:00,16.8,8.7,30.40,West,276,0.0,3.0,70,0.00,,,0.00,WeatherCatV1.11B39,2013-02-10 13:32:00,
2013-02-10 08:37:00,17.3,9.8,30.40,SSW,212,0.0,0.0,72,0.00,,,0.00,WeatherCatV1.11B39,2013-02-10 13:37:00,
2013-02-10 08:42:00,18.1,10.3,30.40,SSW,212,0.0,0.0,71,0.00,,,0.00,WeatherCatV1.11B39,2013-02-10 13:42:00,
2013-02-10 08:47:00,18.6,9.8,30.40,SSW,211,1.0,1.0,68,0.00,,,0.00,WeatherCatV1.11B39,2013-02-10 13:47:00,
2013-02-10 08:52:00,19.0,9.5,30.40,South,169,0.0,1.0,66,0.00,,,0.00,WeatherCatV1.11B39,2013-02-10 13:52:00,
2013-02-10 08:57:00,19.3,10.2,30.40,NNE,12,0.0,1.0,67,0.00,,,0.00,WeatherCatV1.11B39,2013-02-10 13:57:00,
2013-02-10 09:02:00,19.8,9.6,30.40,SSW,212,0.0,2.0,64,0.00,,,0.00,WeatherCatV1.11B39,2013-02-10 14:02:00,
2013-02-10 09:07:00,20.1,11.3,30.40,NNW,340,0.0,1.0,68,0.00,,,0.00,WeatherCatV1.11B39,2013-02-10 14:07:00,
2013-02-10 09:12:00,20.4,10.5,30.40,NNE,12,0.0,3.0,65,0.00,,,0.00,WeatherCatV1.11B39,2013-02-10 14:12:00,
2013-02-10 09:17:00,20.8,10.9,30.40,NW,320,0.0,1.0,65,0.00,,,0.00,WeatherCatV1.11B39,2013-02-10 14:17:00,
2013-02-10 09:22:00,21.0,9.7,30.40,SW,227,1.0,5.0,61,0.00,,,0.00,WeatherCatV1.11B39,2013-02-10 14:22:00,
2013-02-10 09:27:00,21.5,10.2,30.40,SSW,205,0.0,1.0,61,0.00,,,0.00,WeatherCatV1.11B39,2013-02-10 14:27:00,
2013-02-10 09:32:00,22.3,11.6,30.40,WSW,237,1.0,4.0,63,0.00,,,0.00,WeatherCatV1.11B39,2013-02-10 14:32:00,
2013-02-10 09:37:00,22.7,10.9,30.41,West,259,0.0,1.0,60,0.00,,,0.00,WeatherCatV1.11B39,2013-02-10 14:37:00,
2013-02-10 09:42:00,23.2,11.8,30.41,SSW,198,2.0,3.0,61,0.00,,,0.00,WeatherCatV1.11B39,2013-02-10 14:42:00,
2013-02-10 09:47:00,23.4,10.4,30.41,NW,315,0.0,1.0,57,0.00,,,0.00,WeatherCatV1.11B39,2013-02-10 14:47:00,
2013-02-10 09:52:00,23.8,10.8,30.41,North,4,1.0,4.0,57,0.00,,,0.00,WeatherCatV1.11B39,2013-02-10 14:52:00,
2013-02-10 09:57:00,24.2,11.6,30.41,SSE,165,1.0,2.0,58,0.00,,,0.00,WeatherCatV1.11B39,2013-02-10 14:57:00,
2013-02-10 10:02:00,25.0,12.7,30.41,SW,217,1.0,3.0,59,0.00,,,0.00,WeatherCatV1.11B39,2013-02-10 15:02:00,
2013-02-10 10:07:00,25.5,12.4,30.41,NE,50,1.0,4.0,57,0.00,,,0.00,WeatherCatV1.11B39,2013-02-10 15:07:00,
2013-02-10 10:12:00,25.8,12.3,30.41,NNE,17,0.0,5.0,56,0.00,,,0.00,WeatherCatV1.11B39,2013-02-10 15:12:00,
2013-02-10 10:17:00,26.1,11.3,30.42,ENE,63,3.0,3.0,53,0.00,,,0.00,WeatherCatV1.11B39,2013-02-10 15:17:00,
2013-02-10 10:22:00,26.6,10.9,30.41,North,8,1.0,4.0,51,0.00,,,0.00,WeatherCatV1.11B39,2013-02-10 15:22:00,
2013-02-10 10:27:00,26.8,10.7,30.41,ENE,67,4.0,5.0,50,0.00,,,0.00,WeatherCatV1.11B39,2013-02-10 15:27:00,
2013-02-10 10:32:00,27.1,11.4,30.41,NNE,15,1.0,2.0,51,0.00,,,0.00,WeatherCatV1.11B39,2013-02-10 15:32:00,
2013-02-10 10:37:00,27.5,11.3,30.41,SW,225,0.0,1.0,50,0.00,,,0.00,WeatherCatV1.11B39,2013-02-10 15:37:00,
2013-02-10 10:42:00,28.3,12.1,30.41,ENE,71,1.0,2.0,50,0.00,,,0.00,WeatherCatV1.11B39,2013-02-10 15:42:00,
2013-02-10 10:47:00,28.8,13.4,30.41,SW,236,0.0,1.0,52,0.00,,,0.00,WeatherCatV1.11B39,2013-02-10 15:47:00,
2013-02-10 10:52:00,29.4,13.5,30.41,North,6,2.0,2.0,51,0.00,,,0.00,WeatherCatV1.11B39,2013-02-10 15:52:00,
2013-02-10 10:57:00,29.4,11.2,30.41,South,177,0.0,5.0,46,0.00,,,0.00,WeatherCatV1.11B39,2013-02-10 15:57:00,
2013-02-10 11:02:00,30.0,14.1,30.41,SW,231,1.0,1.0,51,0.00,,,0.00,WeatherCatV1.11B39,2013-02-10 16:02:00,
2013-02-10 11:07:00,30.3,12.5,30.41,NNE,29,0.0,2.0,47,0.00,,,0.00,WeatherCatV1.11B39,2013-02-10 16:07:00,
2013-02-10 11:12:00,30.4,9.5,30.41,SW,233,0.0,4.0,41,0.00,,,0.00,WeatherCatV1.11B39,2013-02-10 16:12:00,
2013-02-10 11:17:00,30.6,11.8,30.41,North,11,0.0,2.0,45,0.00,,,0.00,WeatherCatV1.11B39,2013-02-10 16:17:00,
2013-02-10 11:22:00,31.0,9.5,30.41,North,354,0.0,4.0,40,0.00,,,0.00,WeatherCatV1.11B39,2013-02-10 16:22:00,
2013-02-10 11:27:00,31.5,14.6,30.41,NNE,15,0.0,3.0,49,0.00,,,0.00,WeatherCatV1.11B39,2013-02-10 16:27:00,
2013-02-10 11:32:00,32.1,12.7,30.40,North,6,0.0,3.0,44,0.00,,,0.00,WeatherCatV1.11B39,2013-02-10 16:32:00,
2013-02-10 11:37:00,32.2,11.7,30.40,WNW,296,3.0,8.0,42,0.00,,,0.01,WeatherCatV1.11B39,2013-02-10 16:37:00,
2013-02-10 11:42:00,32.2,9.5,30.40,SSW,202,0.0,1.0,38,0.00,,,0.01,WeatherCatV1.11B39,2013-02-10 16:42:00,
2013-02-10 11:47:00,32.5,10.9,30.40,NNW,331,2.0,3.0,40,0.00,,,0.01,WeatherCatV1.11B39,2013-02-10 16:47:00,
2013-02-10 11:52:00,32.8,9.4,30.40,NNE,19,3.0,4.0,37,0.00,,,0.01,WeatherCatV1.11B39,2013-02-10 16:52:00,
2013-02-10 11:57:00,32.9,7.6,30.40,North,352,1.0,2.0,34,0.00,,,0.01,WeatherCatV1.11B39,2013-02-10 16:57:00,
2013-02-10 12:02:00,33.3,12.2,30.40,ENE,61,5.0,5.0,41,0.00,,,0.01,WeatherCatV1.11B39,2013-02-10 17:02:00,
2013-02-10 12:07:00,33.6,8.3,30.40,NNE,16,2.0,7.0,34,0.00,,,0.02,WeatherCatV1.11B39,2013-02-10 17:07:00,
2013-02-10 12:12:00,33.8,9.1,30.40,NNW,331,1.0,3.0,35,0.00,,,0.02,WeatherCatV1.11B39,2013-02-10 17:12:00,
2013-02-10 12:17:00,34.1,10.6,30.39,NE,39,0.0,2.0,37,0.00,,,0.02,WeatherCatV1.11B39,2013-02-10 17:17:00,
2013-02-10 12:22:00,34.5,10.9,30.39,North,356,1.0,2.0,37,0.00,,,0.02,WeatherCatV1.11B39,2013-02-10 17:22:00,
2013-02-10 12:27:00,35.1,10.2,30.39,NNW,342,2.0,2.0,35,0.00,,,0.02,WeatherCatV1.11B39,2013-02-10 17:27:00,
2013-02-10 12:32:00,35.4,9.2,30.39,SSW,194,1.0,3.0,33,0.00,,,0.02,WeatherCatV1.11B39,2013-02-10 17:32:00,
2013-02-10 12:37:00,35.5,8.6,30.39,West,278,1.0,3.0,32,0.00,,,0.02,WeatherCatV1.11B39,2013-02-10 17:37:00,
2013-02-10 12:42:00,35.5,8.6,30.39,WSW,252,0.0,3.0,32,0.00,,,0.03,WeatherCatV1.11B39,2013-02-10 17:42:00,
2013-02-10 12:47:00,35.7,8.8,30.38,North,9,2.0,4.0,32,0.00,,,0.03,WeatherCatV1.11B39,2013-02-10 17:47:00,
2013-02-10 12:52:00,35.9,7.5,30.38,NNW,333,0.0,7.0,30,0.00,,,0.03,WeatherCatV1.11B39,2013-02-10 17:52:00,
2013-02-10 12:57:00,36.0,7.6,30.38,NW,316,1.0,2.0,30,0.00,,,0.03,WeatherCatV1.11B39,2013-02-10 17:57:00,
2013-02-10 13:02:00,36.3,10.0,30.37,SSW,199,0.0,3.0,33,0.00,,,0.03,WeatherCatV1.11B39,2013-02-10 18:02:00,
2013-02-10 13:07:00,36.5,7.3,30.37,NNE,12,2.0,3.0,29,0.00,,,0.03,WeatherCatV1.11B39,2013-02-10 18:07:00,
2013-02-10 13:12:00,36.6,8.1,30.37,SW,228,0.0,2.0,30,0.00,,,0.03,WeatherCatV1.11B39,2013-02-10 18:12:00,
2013-02-10 13:17:00,36.8,6.0,30.36,NNW,347,2.0,2.0,27,0.00,,,0.03,WeatherCatV1.11B39,2013-02-10 18:17:00,
2013-02-10 13:22:00,37.0,4.5,30.36,West,271,1.0,4.0,25,0.00,,,0.03,WeatherCatV1.11B39,2013-02-10 18:22:00,
2013-02-10 13:27:00,37.3,6.4,30.36,NW,321,0.0,2.0,27,0.00,,,0.04,WeatherCatV1.11B39,2013-02-10 18:27:00,
2013-02-10 13:32:00,37.5,7.4,30.36,NNE,17,1.0,1.0,28,0.00,,,0.04,WeatherCatV1.11B39,2013-02-10 18:32:00,
2013-02-10 13:37:00,37.8,8.4,30.36,North,352,0.0,2.0,29,0.00,,,0.04,WeatherCatV1.11B39,2013-02-10 18:37:00,
2013-02-10 13:42:00,38.1,7.9,30.36,North,11,0.0,2.0,28,0.00,,,0.04,WeatherCatV1.11B39,2013-02-10 18:42:00,
2013-02-10 13:47:00,38.3,8.1,30.36,WSW,243,0.0,1.0,28,0.00,,,0.04,WeatherCatV1.11B39,2013-02-10 18:47:00,
2013-02-10 13:52:00,38.6,6.7,30.36,North,350,0.0,1.0,26,0.00,,,0.04,WeatherCatV1.11B39,2013-02-10 18:52:00,
2013-02-10 13:57:00,38.5,5.8,30.35,North,5,0.0,1.0,25,0.00,,,0.04,WeatherCatV1.11B39,2013-02-10 18:57:00,
2013-02-10 14:02:00,39.0,6.2,30.35,North,4,0.0,1.0,25,0.00,,,0.05,WeatherCatV1.11B39,2013-02-10 19:02:00,
2013-02-10 14:07:00,39.3,6.5,30.35,North,358,2.0,2.0,25,0.00,,,0.05,WeatherCatV1.11B39,2013-02-10 19:07:00,
2013-02-10 14:12:00,39.2,6.4,30.35,North,11,0.0,2.0,25,0.00,,,0.05,WeatherCatV1.11B39,2013-02-10 19:12:00,
2013-02-10 14:17:00,39.5,6.6,30.35,South,170,0.0,3.0,25,0.00,,,0.05,WeatherCatV1.11B39,2013-02-10 19:17:00,
2013-02-10 14:22:00,40.1,5.3,30.35,SSW,201,0.0,2.0,23,0.00,,,0.05,WeatherCatV1.11B39,2013-02-10 19:22:00,
2013-02-10 14:27:00,40.4,5.6,30.35,North,350,0.0,1.0,23,0.00,,,0.05,WeatherCatV1.11B39,2013-02-10 19:27:00,
2013-02-10 14:32:00,40.9,6.0,30.35,NNE,12,2.0,2.0,23,0.00,,,0.06,WeatherCatV1.11B39,2013-02-10 19:32:00,
2013-02-10 14:37:00,40.8,5.9,30.35,SE,133,0.0,1.0,23,0.00,,,0.06,WeatherCatV1.11B39,2013-02-10 19:37:00,
2013-02-10 14:42:00,41.1,8.0,30.35,North,356,1.0,2.0,25,0.00,,,0.06,WeatherCatV1.11B39,2013-02-10 19:42:00,
2013-02-10 14:47:00,41.2,5.3,30.35,WNW,285,0.0,0.0,22,0.00,,,0.06,WeatherCatV1.11B39,2013-02-10 19:47:00,
2013-02-10 14:52:00,42.2,7.1,30.35,WNW,287,0.0,1.0,23,0.00,,,0.06,WeatherCatV1.11B39,2013-02-10 19:52:00,
2013-02-10 14:57:00,42.9,9.5,30.35,SW,229,1.0,1.0,25,0.00,,,0.07,WeatherCatV1.11B39,2013-02-10 19:57:00,
2013-02-10 15:02:00,43.5,8.2,30.36,SSW,208,0.0,0.0,23,0.00,,,0.07,WeatherCatV1.11B39,2013-02-10 20:02:00,
2013-02-10 15:07:00,43.5,8.2,30.36,NW,321,0.0,1.0,23,0.00,,,0.07,WeatherCatV1.11B39,2013-02-10 20:07:00,
2013-02-10 15:12:00,43.7,6.4,30.36,SW,221,1.0,4.0,21,0.00,,,0.07,WeatherCatV1.11B39,2013-02-10 20:12:00,
2013-02-10 15:17:00,43.5,5.1,30.36,West,270,0.0,1.0,20,0.00,,,0.08,WeatherCatV1.11B39,2013-02-10 20:17:00,
2013-02-10 15:22:00,43.8,9.4,30.36,SSW,207,0.0,1.0,24,0.00,,,0.08,WeatherCatV1.11B39,2013-02-10 20:22:00,
2013-02-10 15:27:00,43.9,7.5,30.37,South,191,1.0,2.0,22,0.00,,,0.08,WeatherCatV1.11B39,2013-02-10 20:27:00,
2013-02-10 15:32:00,43.4,7.1,30.37,SW,223,0.0,1.0,22,0.00,,,0.08,WeatherCatV1.11B39,2013-02-10 20:32:00,
2013-02-10 15:37:00,43.0,5.8,30.37,SW,219,0.0,1.0,21,0.00,,,0.08,WeatherCatV1.11B39,2013-02-10 20:37:00,
2013-02-10 15:42:00,42.9,5.7,30.37,SSW,209,0.0,0.0,21,0.00,,,0.09,WeatherCatV1.11B39,2013-02-10 20:42:00,
2013-02-10 15:47:00,43.3,5.0,30.36,ENE,78,0.0,1.0,20,0.00,,,0.09,WeatherCatV1.11B39,2013-02-10 20:47:00,
2013-02-10 15:52:00,43.7,8.4,30.37,South,176,0.0,0.0,23,0.00,,,0.09,WeatherCatV1.11B39,2013-02-10 20:52:00,
2013-02-10 15:57:00,43.6,8.3,30.37,SSW,197,0.0,0.0,23,0.00,,,0.09,WeatherCatV1.11B39,2013-02-10 20:57:00,
2013-02-10 16:02:00,43.6,10.1,30.38,SW,214,0.0,2.0,25,0.00,,,0.09,WeatherCatV1.11B39,2013-02-10 21:02:00,
2013-02-10 16:07:00,43.8,10.3,30.38,WSW,255,0.0,1.0,25,0.00,,,0.09,WeatherCatV1.11B39,2013-02-10 21:07:00,
2013-02-10 16:12:00,43.5,9.1,30.37,SW,218,0.0,1.0,24,0.00,,,0.09,WeatherCatV1.11B39,2013-02-10 21:12:00,
2013-02-10 16:17:00,42.7,8.5,30.37,SSW,205,0.0,2.0,24,0.00,,,0.09,WeatherCatV1.11B39,2013-02-10 21:17:00,
2013-02-10 16:22:00,41.3,7.3,30.37,SW,222,2.0,2.0,24,0.00,,,0.09,WeatherCatV1.11B39,2013-02-10 21:22:00,
2013-02-10 16:27:00,40.1,9.6,30.37,WSW,256,0.0,1.0,28,0.00,,,0.09,WeatherCatV1.11B39,2013-02-10 21:27:00,
2013-02-10 16:32:00,39.5,11.4,30.37,WSW,256,0.0,0.0,31,0.00,,,0.10,WeatherCatV1.11B39,2013-02-10 21:32:00,
2013-02-10 16:37:00,38.8,13.5,30.37,WSW,249,0.0,1.0,35,0.00,,,0.10,WeatherCatV1.11B39,2013-02-10 21:37:00,
2013-02-10 16:42:00,38.1,10.9,30.36,WSW,249,0.0,0.0,32,0.00,,,0.10,WeatherCatV1.11B39,2013-02-10 21:42:00,
2013-02-10 16:47:00,37.4,11.6,30.36,WSW,249,0.0,0.0,34,0.00,,,0.10,WeatherCatV1.11B39,2013-02-10 21:47:00,
2013-02-10 16:52:00,36.6,12.2,30.36,SW,224,0.0,1.0,36,0.00,,,0.10,WeatherCatV1.11B39,2013-02-10 21:52:00,
2013-02-10 16:57:00,36.0,14.0,30.36,SSW,210,0.0,0.0,40,0.00,,,0.10,WeatherCatV1.11B39,2013-02-10 21:57:00,
2013-02-10 17:02:00,35.2,13.3,30.36,SW,214,0.0,0.0,40,0.00,,,0.10,WeatherCatV1.11B39,2013-02-10 22:02:00,
2013-02-10 17:07:00,34.5,13.3,30.36,SW,214,0.0,0.0,41,0.00,,,0.10,WeatherCatV1.11B39,2013-02-10 22:07:00,
2013-02-10 17:12:00,33.7,15.1,30.37,SW,214,0.0,0.0,46,0.00,,,0.10,WeatherCatV1.11B39,2013-02-10 22:12:00,
2013-02-10 17:17:00,33.0,14.5,30.37,SSW,212,0.0,0.0,46,0.00,,,0.10,WeatherCatV1.11B39,2013-02-10 22:17:00,
2013-02-10 17:22:00,32.7,15.7,30.37,SW,214,0.0,0.0,49,0.00,,,0.10,WeatherCatV1.11B39,2013-02-10 22:22:00,
2013-02-10 17:27:00,32.0,16.8,30.38,SW,214,0.0,0.0,53,0.00,,,0.10,WeatherCatV1.11B39,2013-02-10 22:27:00,
2013-02-10 17:32:00,31.2,17.4,30.38,SW,214,0.0,0.0,56,0.00,,,0.10,WeatherCatV1.11B39,2013-02-10 22:32:00,
2013-02-10 17:37:00,30.2,16.8,30.38,SW,214,0.0,0.0,57,0.00,,,0.10,WeatherCatV1.11B39,2013-02-10 22:37:00,
2013-02-10 17:42:00,29.2,16.7,30.38,SW,214,0.0,0.0,59,0.00,,,0.10,WeatherCatV1.11B39,2013-02-10 22:42:00,
2013-02-10 17:47:00,28.3,16.6,30.38,SW,214,0.0,0.0,61,0.00,,,0.10,WeatherCatV1.11B39,2013-02-10 22:47:00,
2013-02-10 17:52:00,27.6,15.9,30.37,SW,214,0.0,0.0,61,0.00,,,0.10,WeatherCatV1.11B39,2013-02-10 22:52:00,
2013-02-10 17:57:00,26.9,16.7,30.37,SW,214,0.0,0.0,65,0.00,,,0.10,WeatherCatV1.11B39,2013-02-10 22:57:00,
2013-02-10 18:02:00,26.2,16.8,30.38,SW,214,0.0,0.0,67,0.00,,,0.10,WeatherCatV1.11B39,2013-02-10 23:02:00,
2013-02-10 18:07:00,25.7,15.9,30.37,SW,214,0.0,0.0,66,0.00,,,0.10,WeatherCatV1.11B39,2013-02-10 23:07:00,
2013-02-10 18:12:00,25.2,16.5,30.37,SW,214,0.0,0.0,69,0.00,,,0.10,WeatherCatV1.11B39,2013-02-10 23:12:00,
2013-02-10 18:17:00,24.8,16.8,30.38,SW,214,0.0,0.0,71,0.00,,,0.10,WeatherCatV1.11B39,2013-02-10 23:17:00,
2013-02-10 18:22:00,24.4,16.7,30.38,SW,214,0.0,0.0,72,0.00,,,0.10,WeatherCatV1.11B39,2013-02-10 23:22:00,
2013-02-10 18:27:00,24.1,16.7,30.38,SW,214,0.0,0.0,73,0.00,,,0.10,WeatherCatV1.11B39,2013-02-10 23:27:00,
2013-02-10 18:32:00,23.8,16.4,30.38,SW,214,0.0,0.0,73,0.00,,,0.10,WeatherCatV1.11B39,2013-02-10 23:32:00,
2013-02-10 18:37:00,23.6,16.6,30.38,SW,214,0.0,0.0,74,0.00,,,0.10,WeatherCatV1.11B39,2013-02-10 23:37:00,
2013-02-10 18:42:00,23.4,16.7,30.38,SSW,212,0.0,0.0,75,0.00,,,0.10,WeatherCatV1.11B39,2013-02-10 23:42:00,
2013-02-10 18:47:00,22.9,16.2,30.38,SW,214,0.0,0.0,75,0.00,,,0.10,WeatherCatV1.11B39,2013-02-10 23:47:00,
2013-02-10 18:52:00,22.6,15.6,30.38,SW,214,0.0,0.0,74,0.00,,,0.10,WeatherCatV1.11B39,2013-02-10 23:52:00,
2013-02-10 18:57:00,22.2,15.5,30.39,SW,214,0.0,0.0,75,0.00,,,0.10,WeatherCatV1.11B39,2013-02-10 23:57:00,
2013-02-10 19:02:00,21.9,15.2,30.39,SSW,212,0.0,0.0,75,0.00,,,0.10,WeatherCatV1.11B39,2013-02-11 00:02:00,
2013-02-10 19:07:00,21.7,14.7,30.39,SSW,212,0.0,0.0,74,0.00,,,0.10,WeatherCatV1.11B39,2013-02-11 00:07:00,
2013-02-10 19:12:00,21.9,14.9,30.39,SSW,212,0.0,0.0,74,0.00,,,0.10,WeatherCatV1.11B39,2013-02-11 00:12:00,
2013-02-10 19:17:00,22.1,14.8,30.39,SSW,212,0.0,0.0,73,0.00,,,0.10,WeatherCatV1.11B39,2013-02-11 00:17:00,
2013-02-10 19:22:00,21.8,14.8,30.39,SSW,212,0.0,0.0,74,0.00,,,0.10,WeatherCatV1.11B39,2013-02-11 00:22:00,
2013-02-10 19:27:00,21.4,14.7,30.39,SSW,212,0.0,0.0,75,0.00,,,0.10,WeatherCatV1.11B39,2013-02-11 00:27:00,
2013-02-10 19:32:00,21.1,14.7,30.39,SSW,212,0.0,0.0,76,0.00,,,0.10,WeatherCatV1.11B39,2013-02-11 00:32:00,
2013-02-10 19:37:00,20.9,14.2,30.39,SSW,212,0.0,0.0,75,0.00,,,0.10,WeatherCatV1.11B39,2013-02-11 00:37:00,
2013-02-10 19:42:00,20.6,14.3,30.38,SSW,212,0.0,0.0,76,0.00,,,0.10,WeatherCatV1.11B39,2013-02-11 00:42:00,
2013-02-10 19:47:00,20.6,14.6,30.39,SSW,212,0.0,0.0,77,0.00,,,0.10,WeatherCatV1.11B39,2013-02-11 00:47:00,
2013-02-10 19:52:00,20.4,14.4,30.38,SSW,212,0.0,0.0,77,0.00,,,0.10,WeatherCatV1.11B39,2013-02-11 00:52:00,
2013-02-10 19:57:00,20.2,14.5,30.38,SSW,212,0.0,0.0,78,0.00,,,0.10,WeatherCatV1.11B39,2013-02-11 00:57:00,
2013-02-10 20:02:00,20.2,14.8,30.38,SSW,212,0.0,0.0,79,0.00,,,0.10,WeatherCatV1.11B39,2013-02-11 01:02:00,
2013-02-10 20:07:00,20.1,14.7,30.38,SSW,212,0.0,0.0,79,0.00,,,0.10,WeatherCatV1.11B39,2013-02-11 01:07:00,
2013-02-10 20:12:00,20.0,14.8,30.38,SSW,212,0.0,0.0,80,0.00,,,0.10,WeatherCatV1.11B39,2013-02-11 01:12:00,
2013-02-10 20:17:00,20.0,14.8,30.39,SSW,212,0.0,0.0,80,0.00,,,0.10,WeatherCatV1.11B39,2013-02-11 01:17:00,
2013-02-10 20:22:00,20.3,15.1,30.38,SSW,212,0.0,0.0,80,0.00,,,0.10,WeatherCatV1.11B39,2013-02-11 01:22:00,
2013-02-10 20:27:00,20.1,14.7,30.38,SSW,212,0.0,0.0,79,0.00,,,0.10,WeatherCatV1.11B39,2013-02-11 01:27:00,
2013-02-10 20:32:00,19.6,14.2,30.38,SSW,212,0.0,0.0,79,0.00,,,0.10,WeatherCatV1.11B39,2013-02-11 01:32:00,
2013-02-10 20:37:00,19.2,14.1,30.38,SSW,212,0.0,0.0,80,0.00,,,0.10,WeatherCatV1.11B39,2013-02-11 01:37:00,
2013-02-10 20:42:00,19.3,14.7,30.38,SSW,212,0.0,0.0,82,0.00,,,0.10,WeatherCatV1.11B39,2013-02-11 01:42:00,
2013-02-10 20:47:00,19.4,14.5,30.38,SSW,212,0.0,0.0,81,0.00,,,0.10,WeatherCatV1.11B39,2013-02-11 01:47:00,
2013-02-10 20:52:00,19.4,14.3,30.38,SSW,212,0.0,0.0,80,0.00,,,0.10,WeatherCatV1.11B39,2013-02-11 01:52:00,
2013-02-10 20:57:00,19.4,14.3,30.39,SSW,212,0.0,0.0,80,0.00,,,0.10,WeatherCatV1.11B39,2013-02-11 01:57:00,
2013-02-10 21:02:00,19.8,14.6,30.39,SSW,212,0.0,0.0,80,0.00,,,0.10,WeatherCatV1.11B39,2013-02-11 02:02:00,
2013-02-10 21:07:00,20.1,14.4,30.39,SSW,212,0.0,0.0,78,0.00,,,0.10,WeatherCatV1.11B39,2013-02-11 02:07:00,
2013-02-10 21:12:00,19.9,14.2,30.39,SSW,212,0.0,0.0,78,0.00,,,0.10,WeatherCatV1.11B39,2013-02-11 02:12:00,
2013-02-10 21:17:00,19.4,13.7,30.39,SSW,212,0.0,0.0,78,0.00,,,0.10,WeatherCatV1.11B39,2013-02-11 02:17:00,
2013-02-10 21:22:00,19.0,13.3,30.39,SSW,212,0.0,0.0,78,0.00,,,0.10,WeatherCatV1.11B39,2013-02-11 02:22:00,
2013-02-10 21:27:00,18.8,13.1,30.38,SSW,212,0.0,0.0,78,0.00,,,0.10,WeatherCatV1.11B39,2013-02-11 02:27:00,
2013-02-10 21:32:00,18.6,12.6,30.38,SSW,212,0.0,0.0,77,0.00,,,0.10,WeatherCatV1.11B39,2013-02-11 02:32:00,
2013-02-10 21:37:00,18.3,12.6,30.38,SSW,212,0.0,0.0,78,0.00,,,0.10,WeatherCatV1.11B39,2013-02-11 02:37:00,
2013-02-10 21:42:00,18.2,12.8,30.38,SSW,212,0.0,0.0,79,0.00,,,0.10,WeatherCatV1.11B39,2013-02-11 02:42:00,
2013-02-10 21:47:00,18.2,12.8,30.38,SSW,212,0.0,0.0,79,0.00,,,0.10,WeatherCatV1.11B39,2013-02-11 02:47:00,
2013-02-10 21:52:00,18.2,13.1,30.38,SSW,212,0.0,0.0,80,0.00,,,0.10,WeatherCatV1.11B39,2013-02-11 02:52:00,
2013-02-10 21:57:00,17.9,12.5,30.38,SSW,212,0.0,0.0,79,0.00,,,0.10,WeatherCatV1.11B39,2013-02-11 02:57:00,
2013-02-10 22:03:00,17.7,12.6,30.38,SSW,212,0.0,0.0,80,0.00,,,0.10,WeatherCatV1.11B39,2013-02-11 03:03:00,
2013-02-10 22:08:00,17.5,12.4,30.38,SSW,212,0.0,0.0,80,0.00,,,0.10,WeatherCatV1.11B39,2013-02-11 03:08:00,
2013-02-10 22:13:00,17.1,12.0,30.38,SSW,212,0.0,0.0,80,0.00,,,0.10,WeatherCatV1.11B39,2013-02-11 03:13:00,
2013-02-10 22:18:00,16.9,12.1,30.38,SSW,212,0.0,0.0,81,0.00,,,0.10,WeatherCatV1.11B39,2013-02-11 03:18:00,
2013-02-10 22:23:00,16.7,11.9,30.38,SSW,212,0.0,0.0,81,0.00,,,0.10,WeatherCatV1.11B39,2013-02-11 03:23:00,
2013-02-10 22:28:00,17.0,12.5,30.38,SSW,212,0.0,0.0,82,0.00,,,0.10,WeatherCatV1.11B39,2013-02-11 03:28:00,
2013-02-10 22:33:00,17.0,12.2,30.38,SSW,212,0.0,0.0,81,0.00,,,0.10,WeatherCatV1.11B39,2013-02-11 03:33:00,
2013-02-10 22:38:00,16.9,12.1,30.38,SSW,212,0.0,0.0,81,0.00,,,0.10,WeatherCatV1.11B39,2013-02-11 03:38:00,
2013-02-10 22:43:00,16.9,12.1,30.38,SSW,212,0.0,0.0,81,0.00,,,0.10,WeatherCatV1.11B39,2013-02-11 03:43:00,
2013-02-10 22:48:00,16.6,11.8,30.39,SSW,212,0.0,0.0,81,0.00,,,0.10,WeatherCatV1.11B39,2013-02-11 03:48:00,
2013-02-10 22:53:00,16.6,11.8,30.38,SSW,212,0.0,0.0,81,0.00,,,0.10,WeatherCatV1.11B39,2013-02-11 03:53:00,
2013-02-10 22:58:00,16.6,11.8,30.38,SSW,212,0.0,0.0,81,0.00,,,0.10,WeatherCatV1.11B39,2013-02-11 03:58:00,
2013-02-10 23:03:00,16.4,11.3,30.38,SSW,212,0.0,0.0,80,0.00,,,0.10,WeatherCatV1.11B39,2013-02-11 04:03:00,
2013-02-10 23:08:00,16.4,11.3,30.38,SSW,212,0.0,0.0,80,0.00,,,0.10,WeatherCatV1.11B39,2013-02-11 04:08:00,
2013-02-10 23:13:00,16.4,11.3,30.38,SSW,212,0.0,0.0,80,0.00,,,0.10,WeatherCatV1.11B39,2013-02-11 04:13:00,
2013-02-10 23:18:00,16.2,10.9,30.38,SSW,212,0.0,0.0,79,0.00,,,0.10,WeatherCatV1.11B39,2013-02-11 04:18:00,
2013-02-10 23:23:00,16.1,11.0,30.38,SSW,212,0.0,0.0,80,0.00,,,0.10,WeatherCatV1.11B39,2013-02-11 04:23:00,
2013-02-10 23:28:00,16.2,11.4,30.38,SSW,212,0.0,0.0,81,0.00,,,0.10,WeatherCatV1.11B39,2013-02-11 04:28:00,
2013-02-10 23:33:00,16.5,11.7,30.38,SSW,212,0.0,0.0,81,0.00,,,0.10,WeatherCatV1.11B39,2013-02-11 04:33:00,
2013-02-10 23:38:00,16.5,11.4,30.38,SSW,212,0.0,0.0,80,0.00,,,0.10,WeatherCatV1.11B39,2013-02-11 04:38:00,
2013-02-10 23:43:00,16.4,11.3,30.38,SSW,212,0.0,0.0,80,0.00,,,0.10,WeatherCatV1.11B39,2013-02-11 04:43:00,
2013-02-10 23:48:00,16.2,11.1,30.38,SSW,212,0.0,0.0,80,0.00,,,0.10,WeatherCatV1.11B39,2013-02-11 04:48:00,
2013-02-10 23:53:00,16.0,10.9,30.38,SSW,212,0.0,0.0,80,0.00,,,0.10,WeatherCatV1.11B39,2013-02-11 04:53:00,
2013-02-10 23:58:00,16.2,11.4,30.38,SSW,212,0.0,0.0,81,0.00,,,0.10,WeatherCatV1.11B39,2013-02-11 04:58:00,